Albatross Bank - 104nm South Of Kodiak, Ak (46078) Wave Buoy

11:50pm - Fri 27th Nov 2015 All times are AKST. -9 hours from GMT.

  • Sig Wave height 17.1ft
  • Peak Period 12s
  • Average Period 9s
  • Wind
    22mph, 27mph gusts
  • Sea Temp 43°f
  • Air Temp 42°f
  • Sea Pressure 988.7mb
  • Albatross Bank - 104nm South Of Kodiak, Ak
  • Albatross Bank - 104nm South Of Kodiak, Ak

More Historic Weather Station data

Upgrade to MSW Pro to gain access to the past 30 days of data for over 8000 Wavebouys and Weather Stations around the globe.

Join Pro

Comparision Forecast

View Surf forecast
Fri 11/27 11:50pm 17ft 12s 9s 22 27 mph 988.7mb 43f 42f
10:50pm 15.5ft 11s 9s 22 29 mph 988.7mb 43f 42f
9:50pm 16.5ft 12s 9s 22 27 mph 988.2mb 43f 44f
8:50pm 17ft 11s 9s 20 27 mph 987.9mb 43f 43f
7:50pm 16.5ft 17s 9s 27 36 mph 987.7mb 43f 44f
6:50pm 16ft 11s 9s 22 29 mph 987.5mb 43f 43f
5:50pm 17ft 17s 9s 22 27 mph 987.3mb 43f 43f
4:50pm 15.5ft 12s 9s 25 29 mph 986.8mb 44f 43f
3:50pm 15ft 12s 8s 22 27 mph 986.8mb 44f 44f
2:50pm 14.5ft 12s 8s 25 29 mph 986.5mb 44f 44f
1:50pm 14ft 13s 8s 25 31 mph 986.5mb 44f 44f
12:50pm 14ft 11s 8s 25 31 mph 986.4mb 44f 43f
11:50am 13ft 13s 8s 25 29 mph 986.3mb 44f 43f
10:50am 12ft 12s 7s 22 29 mph 986mb 44f 44f
9:50am 13ft 13s 8s 25 31 mph 985.1mb 44f 44f
8:50am 13ft 13s 8s 20 27 mph 984.1mb 44f 42f
7:50am 13ft 13s 8s 20 25 mph 982.7mb 44f 42f
6:50am 12ft 12s 8s 18 22 mph 982.3mb 44f 41f
5:50am 13ft 13s 8s 18 25 mph 982.2mb 44f 42f
4:50am 12ft 13s 8s 20 25 mph 982.9mb 44f 41f
3:50am 11ft 13s 8s 22 27 mph 983.4mb 44f 41f
2:50am 12ft 12s 8s 25 29 mph 983.4mb 44f 41f
1:50am 12ft 12s 9s 22 29 mph 983.3mb 44f 42f
12:50am 11ft 14s 8s 18 25 mph 983mb 44f 42f
Thu 11/26 11:50pm 11.5ft 12s 9s 16 20 mph 982.6mb 44f 43f
10:50pm 11.5ft 11s 9s 16 20 mph 983mb 44f 44f
9:50pm 10.5ft 12s 9s 16 22 mph 984.4mb 44f 44f
8:50pm 11ft 11s 9s 16 20 mph 986.9mb 44f 42f
7:50pm 10.5ft 12s 9s 18 20 mph 990mb 44f 42f
6:50pm 10.5ft 11s 9s 16 20 mph 992.7mb 44f 40f
5:50pm 11ft 11s 9s 18 20 mph 994.7mb 44f 40f
4:50pm 13ft 12s 9s 16 18 mph 996.2mb 44f 40f
3:50pm 12ft 11s 9s 13 18 mph 997.7mb 44f 40f
2:50pm 12.5ft 13s 9s 9 11 mph 998.9mb 44f 40f
1:50pm 16.5ft 13s 10s 9 13 mph 999.8mb 44f 41f
12:50pm 15.5ft 14s 10s 7 11 mph 1000.9mb 44f 41f
11:50am 15.5ft 13s 10s 7 11 mph 1001.7mb 44f 42f
10:50am 17.5ft 13s 10s 7 11 mph 1001.9mb 44f 41f
9:50am 16.5ft 13s 10s 11 13 mph 1001.9mb 44f 41f
8:50am 15ft 14s 9s 16 18 mph 1001.4mb 44f 41f
7:50am 17.5ft 14s 10s 18 22 mph 1000.7mb 44f 41f
6:50am 15.5ft 13s 9s 22 29 mph 1000.1mb 44f 41f
5:50am 15ft 14s 9s 25 29 mph 999.6mb 44f 41f
4:50am 15.5ft 12s 9s 22 29 mph 998.4mb 44f 42f
3:50am 16.5ft 14s 9s 25 31 mph 997.6mb 44f 42f
2:50am 21ft 14s 10s 27 31 mph 996.4mb 44f 41f
1:50am 15ft 14s 9s 27 34 mph 995.3mb 44f 41f
12:50am 16.5ft 14s 9s 25 29 mph 994.1mb 44f 41f
Wed 11/25 11:50pm 19.5ft 13s 10s 16 20 mph 992.6mb 44f 42f
10:50pm 19.5ft 13s 10s 13 20 mph 992mb 44f 44f
9:50pm 20ft 14s 10s 16 20 mph 991.9mb 44f 44f
8:50pm 20.5ft 14s 10s 18 22 mph 991.9mb 44f 45f
7:50pm 19ft 13s 10s 20 27 mph 992.1mb 44f 45f
6:50pm 21.5ft 13s 10s 22 29 mph 992.6mb 44f 45f
5:50pm 19.5ft 14s 9s 25 29 mph 992.8mb 44f 45f
4:50pm 18.5ft 14s 10s 25 29 mph 993mb 44f 46f
3:50pm 17.5ft 14s 9s 25 31 mph 993.2mb 44f 46f
2:50pm 18.5ft 12s 9s 27 31 mph 993.3mb 44f 46f
1:50pm 17.5ft 11s 9s 25 31 mph 994.3mb 44f 45f
12:50pm 15.5ft 11s 8s 25 31 mph 995.2mb 44f 45f
11:50am 15.5ft 11s 8s 27 34 mph 996.3mb 44f 45f
10:50am 14ft 10s 8s 25 31 mph 997.4mb 44f 45f
9:50am 13ft 9s 7s 27 34 mph 998.6mb 44f 45f
8:50am 13ft 9s 7s 29 34 mph 999.7mb 44f 44f
7:50am 11.5ft 9s 7s 31 36 mph 1000.8mb 44f 44f
6:50am 11ft 9s 7s 27 36 mph 1002.9mb 44f 44f
5:50am 10.5ft 9s 7s 25 31 mph 1005.1mb 44f 44f
4:50am 10.5ft 9s 7s 22 31 mph 1007.1mb 44f 44f
3:50am 11ft 9s 7s 22 27 mph 1008.7mb 44f 44f
2:50am 10ft 9s 7s 22 27 mph 1010.2mb 44f 44f
1:50am 11ft 9s 7s 22 29 mph 1011.7mb 44f 44f
12:50am 10.5ft 9s 7s 22 27 mph 1012.9mb 44f 44f
Tue 11/24 11:50pm 11ft 8s 7s 25 34 mph 1013.6mb 44f 44f
10:50pm 12ft 9s 7s 25 31 mph 1014.4mb 44f 44f
9:50pm 11.5ft 11s 7s 27 31 mph 1014.9mb 44f 44f
8:50pm 12.5ft 11s 7s 27 34 mph 1015.6mb 44f 44f
7:50pm 11.5ft 11s 7s 27 34 mph 1016.4mb 44f 44f
6:50pm 13.5ft 11s 8s 29 34 mph 1016.6mb 44f 44f
5:50pm 12.5ft 13s 8s 29 34 mph 1017mb 44f 44f
4:50pm 13ft 11s 8s 27 36 mph 1017.2mb 44f 44f
3:50pm 12.5ft 12s 7s 27 34 mph 1017.5mb 44f 44f
2:50pm 12ft 11s 7s 27 34 mph 1018.1mb 44f 44f
1:50pm 12.5ft 11s 7s 27 31 mph 1018.8mb 44f 44f
12:50pm 11.5ft 11s 7s 29 36 mph 1019.4mb 44f 45f
11:50am 12ft 10s 7s 27 34 mph 1020mb 44f 45f
10:50am 13.5ft 12s 8s 25 31 mph 1020.5mb 44f 45f
9:50am 14ft 12s 8s 27 34 mph 1020.8mb 44f 44f